createdAt,value
2022-12-29T00:03:04.721Z,17.148404
2022-12-29T00:08:06.618Z,16.736364
2022-12-29T00:13:08.772Z,17.097382
2022-12-29T00:18:10.840Z,16.876266
2022-12-29T00:23:12.728Z,17.426458
2022-12-29T00:28:14.755Z,17.241708
2022-12-29T00:33:16.965Z,16.606856
2022-12-29T00:38:19.897Z,17.514022
2022-12-29T00:43:21.460Z,17.512516
2022-12-29T00:48:23.249Z,17.89165
2022-12-29T00:53:24.792Z,17.442606
2022-12-29T00:58:26.291Z,16.65956
2022-12-29T01:03:28.802Z,16.846956
2022-12-29T01:08:30.444Z,16.93452
2022-12-29T01:13:32.326Z,16.456356
2022-12-29T01:18:34.437Z,17.239578
2022-12-29T01:23:36.124Z,15.401446
2022-12-29T01:28:38.059Z,16.041752
2022-12-29T01:33:40.485Z,16.20091
2022-12-29T01:38:42.465Z,16.049256
2022-12-29T01:43:44.254Z,16.00848
2022-12-29T01:48:46.227Z,16.116698
2022-12-29T01:53:48.037Z,15.868836
2022-12-29T01:58:49.979Z,15.598558
2022-12-29T02:03:53.227Z,16.076884
2022-12-29T02:08:54.895Z,17.220336
2022-12-29T02:13:56.675Z,16.484256
2022-12-29T02:18:58.712Z,16.208142
2022-12-29T02:24:00.812Z,17.044068
2022-12-29T02:29:02.896Z,15.861508
2022-12-29T02:34:05.596Z,15.96001
2022-12-29T02:39:07.461Z,16.035836
2022-12-29T02:44:08.974Z,16.797794
2022-12-29T02:49:11.119Z,16.955092
2022-12-29T02:54:13.041Z,16.619666
2022-12-29T02:59:14.952Z,16.62698
2022-12-29T03:04:17.667Z,16.235688
2022-12-29T03:09:20.635Z,17.06525
2022-12-29T03:14:22.487Z,16.610208
2022-12-29T03:19:24.421Z,16.302328
2022-12-29T03:24:25.941Z,16.981566
2022-12-29T03:29:27.532Z,16.93391
2022-12-29T03:34:29.446Z,16.678978
2022-12-29T03:39:31.097Z,17.14972
2022-12-29T03:44:32.826Z,17.746618
2022-12-29T03:49:34.330Z,17.557716
2022-12-29T03:54:35.984Z,17.801168
2022-12-29T03:59:37.811Z,16.801498
2022-12-29T04:04:40.055Z,17.402888
2022-12-29T04:09:41.551Z,16.853754
2022-12-29T04:14:43.248Z,17.478796
2022-12-29T04:19:44.745Z,16.588592
2022-12-29T04:24:46.265Z,16.917572
2022-12-29T04:29:48.085Z,17.542532
2022-12-29T04:34:49.825Z,17.440136
2022-12-29T04:39:51.615Z,16.320688
2022-12-29T04:44:53.162Z,16.173188
2022-12-29T04:49:54.781Z,17.036198
2022-12-29T04:54:56.478Z,17.58339
2022-12-29T04:59:58.290Z,17.025532
2022-12-29T05:05:00.252Z,17.006548
2022-12-29T05:10:01.932Z,17.262714
2022-12-29T05:15:03.367Z,17.472974
2022-12-29T05:20:05.189Z,17.969946
2022-12-29T05:25:06.804Z,18.592192
2022-12-29T05:30:08.541Z,18.495346
2022-12-29T05:35:10.489Z,19.05083
2022-12-29T05:40:12.057Z,18.663758
2022-12-29T05:45:13.967Z,19.00335
2022-12-29T05:50:16.356Z,19.452476
2022-12-29T05:55:19.995Z,19.42497
2022-12-29T06:00:21.456Z,19.376486
2022-12-29T06:05:23.660Z,19.554356
2022-12-29T06:10:25.455Z,19.549946
2022-12-29T06:15:26.955Z,19.367842
2022-12-29T06:20:28.695Z,19.251144
2022-12-29T06:25:30.227Z,18.797418
2022-12-29T06:30:32.018Z,18.33266
2022-12-29T06:35:33.734Z,19.21741
2022-12-29T06:40:35.794Z,18.826186
2022-12-29T06:45:37.473Z,18.848874
2022-12-29T06:50:39.105Z,18.829456
2022-12-29T06:55:40.937Z,18.645222
2022-12-29T07:00:42.737Z,18.2074
2022-12-29T07:05:44.878Z,18.097052
2022-12-29T07:10:46.731Z,18.647352
2022-12-29T07:15:48.829Z,18.22329
2022-12-29T07:20:50.722Z,18.797866
2022-12-29T07:25:52.755Z,18.326202
2022-12-29T07:30:54.796Z,18.060862
2022-12-29T07:35:56.874Z,18.165728
2022-12-29T07:40:59.027Z,17.68333
2022-12-29T07:46:00.841Z,17.706086
2022-12-29T07:51:02.810Z,17.502624
2022-12-29T07:56:04.713Z,17.104968
2022-12-29T08:01:06.315Z,17.19773
2022-12-29T08:06:09.004Z,17.213538
2022-12-29T08:11:10.669Z,16.69936
2022-12-29T08:16:12.830Z,16.990306
2022-12-29T08:21:15.020Z,16.443642
2022-12-29T08:26:16.808Z,16.787644
2022-12-29T08:31:18.938Z,16.154828
2022-12-29T08:36:21.035Z,16.10743
2022-12-29T08:41:22.499Z,15.966374
2022-12-29T08:46:25.059Z,16.334462
2022-12-29T08:51:27.042Z,16.299764
2022-12-29T08:56:28.776Z,16.097456
2022-12-29T09:01:30.569Z,16.04581
2022-12-29T09:06:38.073Z,16.525114
2022-12-29T09:11:41.853Z,16.411876
2022-12-29T09:16:43.996Z,16.536946
2022-12-29T09:21:45.810Z,16.964618
2022-12-29T09:26:47.544Z,17.286366
2022-12-29T09:31:49.421Z,17.906386
2022-12-29T09:36:51.462Z,17.743972
2022-12-29T09:41:53.262Z,18.038798
2022-12-29T09:46:55.264Z,17.917418
2022-12-29T09:51:57.101Z,18.54151
2022-12-29T09:56:59.003Z,18.087092
2022-12-29T10:02:00.980Z,17.523996
2022-12-29T10:07:28.421Z,17.541202
2022-12-29T10:12:31.106Z,18.089548
2022-12-29T10:17:32.655Z,18.201918
2022-12-29T10:22:34.516Z,18.316146
2022-12-29T10:27:36.671Z,17.48269
2022-12-29T10:32:38.451Z,18.589098
2022-12-29T10:37:40.633Z,18.807202
2022-12-29T10:42:42.400Z,19.998366
2022-12-29T10:47:44.351Z,19.474472
2022-12-29T10:52:46.488Z,19.580586
2022-12-29T10:57:48.048Z,19.274972
2022-12-29T11:02:50.281Z,20.454046
2022-12-29T11:07:52.686Z,19.91186
2022-12-29T11:17:54.609Z,19.364504
2022-12-29T11:22:56.606Z,20.909102
2022-12-29T11:27:58.103Z,21.97981
2022-12-29T11:33:00.020Z,21.492784
2022-12-29T11:38:02.385Z,20.274222
2022-12-29T11:43:04.184Z,21.304954
2022-12-29T11:48:06.003Z,22.13776
2022-12-29T11:53:07.955Z,21.62715
2022-12-29T11:58:09.585Z,22.118152
2022-12-29T12:03:11.554Z,21.716112
2022-12-29T12:08:17.570Z,22.877262
2022-12-29T12:13:22.383Z,23.865278
2022-12-29T12:18:24.440Z,22.284108
2022-12-29T12:23:26.077Z,22.417402
2022-12-29T12:28:30.538Z,23.3389
2022-12-29T12:33:36.682Z,23.950224
2022-12-29T12:38:38.916Z,23.446602
2022-12-29T12:43:40.735Z,24.554478
2022-12-29T12:48:42.533Z,24.09592
2022-12-29T12:53:44.532Z,23.243126
2022-12-29T12:58:46.334Z,24.37901
2022-12-29T13:03:48.226Z,23.859294
2022-12-29T13:08:50.523Z,23.406232
2022-12-29T13:13:52.403Z,23.456304
2022-12-29T13:18:54.468Z,23.076518
2022-12-29T13:23:56.387Z,24.009604
2022-12-29T13:28:57.973Z,23.774348
2022-12-29T13:33:59.871Z,26.073704
2022-12-29T13:39:01.689Z,24.351002
2022-12-29T13:44:03.525Z,24.682236
2022-12-29T13:49:05.611Z,24.014462
2022-12-29T13:54:07.482Z,24.631282
2022-12-29T13:59:09.437Z,25.477184
2022-12-29T14:04:11.574Z,25.295772
2022-12-29T14:09:13.799Z,24.959232
2022-12-29T14:14:15.864Z,25.61402
2022-12-29T14:19:17.775Z,24.67366
2022-12-29T14:24:19.550Z,25.153196
2022-12-29T14:29:21.583Z,24.71863
2022-12-29T14:34:23.642Z,23.874736
2022-12-29T14:39:25.432Z,24.529768
2022-12-29T14:44:27.391Z,24.60744
2022-12-29T14:49:28.982Z,23.920696
2022-12-29T14:54:30.468Z,24.298434
2022-12-29T14:59:31.990Z,24.830104
2022-12-29T15:04:33.490Z,24.481202
2022-12-29T15:09:35.662Z,23.673472
2022-12-29T15:14:37.482Z,24.110046
2022-12-29T15:19:39.303Z,23.342238
2022-12-29T15:24:42.765Z,23.089124
2022-12-29T15:29:44.508Z,23.741048
2022-12-29T15:34:46.006Z,23.36764
2022-12-29T15:39:47.877Z,23.145384
2022-12-29T15:44:54.384Z,22.90508
2022-12-29T15:49:59.745Z,22.378946
2022-12-29T15:55:01.456Z,22.832686
2022-12-29T16:00:02.982Z,22.56717
2022-12-29T16:05:18.575Z,22.541374
2022-12-29T16:10:20.659Z,22.397048
2022-12-29T16:15:22.132Z,21.703194
2022-12-29T16:20:23.702Z,21.831196
2022-12-29T16:25:25.752Z,22.758094
2022-12-29T16:30:33.230Z,22.007506
2022-12-29T16:35:35.646Z,22.609792
2022-12-29T16:40:37.384Z,22.130894
2022-12-29T16:45:39.097Z,22.70003
2022-12-29T16:50:40.805Z,22.541374
2022-12-29T16:55:42.655Z,22.476742
2022-12-29T17:00:44.320Z,22.038892
2022-12-29T17:05:46.290Z,21.799864
2022-12-29T17:10:48.757Z,21.392274
2022-12-29T17:15:50.758Z,20.97543
2022-12-29T17:20:52.442Z,21.196058
2022-12-29T17:25:54.305Z,21.673192
2022-12-29T17:30:56.067Z,21.183072
2022-12-29T17:35:57.952Z,21.308224
2022-12-29T17:41:00.105Z,21.50155
2022-12-29T17:46:02.025Z,21.46939
2022-12-29T17:51:03.874Z,21.19523
2022-12-29T17:56:05.874Z,21.410878
2022-12-29T18:01:07.721Z,21.22127
2022-12-29T18:06:09.576Z,21.260554
2022-12-29T18:11:12.107Z,20.717676
2022-12-29T18:16:14.312Z,20.983816
2022-12-29T18:21:16.179Z,20.956772
2022-12-29T18:26:22.353Z,20.088712
2022-12-29T18:31:29.067Z,20.630342
2022-12-29T18:36:30.614Z,19.804294
2022-12-29T18:41:32.595Z,20.026998
2022-12-29T18:46:34.212Z,19.97485
2022-12-29T18:51:35.789Z,20.448062
2022-12-29T18:56:37.494Z,20.167348
2022-12-29T19:01:39.399Z,19.43398
2022-12-29T19:06:40.985Z,19.520296
2022-12-29T19:11:43.319Z,19.664188
2022-12-29T19:16:45.273Z,19.97561
2022-12-29T19:21:46.836Z,19.817158
2022-12-29T19:26:48.421Z,19.344896
2022-12-29T19:31:50.167Z,19.657824
2022-12-29T19:36:51.841Z,19.562742
2022-12-29T19:41:53.703Z,19.30032
2022-12-29T19:46:55.545Z,19.213176
2022-12-29T19:51:57.312Z,19.041046
2022-12-29T19:56:58.923Z,19.134622
2022-12-29T20:02:01.022Z,19.475978
2022-12-29T20:07:02.852Z,18.704656
2022-12-29T20:12:04.620Z,19.293698
2022-12-29T20:17:11.310Z,19.373324
2022-12-29T20:22:13.322Z,19.145844
2022-12-29T20:27:14.994Z,19.560286
2022-12-29T20:32:16.721Z,19.353974
2022-12-29T20:37:18.392Z,19.446844
2022-12-29T20:42:20.333Z,19.24824
2022-12-29T20:47:21.928Z,19.108514
2022-12-29T20:52:23.575Z,19.53449
2022-12-29T20:57:25.850Z,19.545536
2022-12-29T21:02:27.585Z,18.69893
2022-12-29T21:08:19.316Z,17.537536
2022-12-29T21:13:21.689Z,19.343064
2022-12-29T21:18:23.428Z,19.280902
2022-12-29T21:23:25.217Z,19.087766
2022-12-29T21:28:26.738Z,18.51532
2022-12-29T21:33:28.283Z,18.940604
2022-12-29T21:38:30.295Z,19.013866
2022-12-29T21:43:32.082Z,18.760346
2022-12-29T21:48:33.988Z,18.566152
2022-12-29T21:53:35.891Z,18.467284
2022-12-29T21:58:37.808Z,18.155428
2022-12-29T22:03:39.578Z,18.691928
2022-12-29T22:08:41.172Z,18.439914
2022-12-29T22:13:43.406Z,18.26028
2022-12-29T22:18:45.214Z,17.927934
2022-12-29T22:23:46.812Z,18.410346
2022-12-29T22:28:48.678Z,18.420496
2022-12-29T22:33:51.249Z,17.311808
2022-12-29T22:38:52.808Z,17.940296
2022-12-29T22:43:54.884Z,17.838416
2022-12-29T22:48:56.552Z,17.47908
2022-12-29T22:53:58.287Z,17.488348
2022-12-29T22:59:00.228Z,17.488796
2022-12-29T23:04:45.511Z,17.867726
2022-12-29T23:10:03.297Z,17.53804
2022-12-29T23:15:06.077Z,17.322922
2022-12-29T23:20:07.754Z,16.877854
2022-12-29T23:25:09.459Z,17.274628
2022-12-29T23:30:10.948Z,17.62304
2022-12-29T23:35:12.776Z,17.023156
2022-12-29T23:40:14.297Z,17.001608
2022-12-29T23:45:16.247Z,16.40463
2022-12-29T23:50:17.912Z,16.081118
2022-12-29T23:55:19.925Z,16.21794
